Time;durP1;ratioP1;P1;durP2;ratioP2;P2;SDS_P1;SDS_P2;PMS_P1;PMS_P2;Temp;Humidity;BMP_temperature;BMP_pressure;BME280_temperature;BME280_humidity;BME280_pressure;Samples;Min_cycle;Max_cycle;Signal;HPM_P1;HPM_P2
2023/09/09 00:02:16;;;;;;;12.52;5.60;;;;;;;20.68;50.97;99560.91;4374568;32;34590;-88
2023/09/09 00:04:44;;;;;;;9.82;5.43;;;;;;;20.62;51.36;99557.50;4375468;32;33595;-87
2023/09/09 00:07:11;;;;;;;8.10;5.40;;;;;;;20.64;51.08;99560.09;4374951;32;34408;-88
2023/09/09 00:09:41;;;;;;;8.57;5.00;;;;;;;20.65;51.04;99556.59;4375037;32;33587;-88
2023/09/09 00:12:08;;;;;;;9.23;5.30;;;;;;;20.70;50.93;99554.69;4375030;32;34889;-88
2023/09/09 00:14:37;;;;;;;9.05;5.00;;;;;;;20.63;51.08;99555.72;4375103;32;34865;-88
2023/09/09 00:17:04;;;;;;;10.48;5.47;;;;;;;20.55;51.47;99557.66;4361889;32;34162;-88
2023/09/09 00:19:34;;;;;;;7.97;5.60;;;;;;;20.56;51.60;99554.13;4361863;32;33597;-88
2023/09/09 00:22:01;;;;;;;9.85;5.60;;;;;;;20.50;51.75;99554.28;4375410;32;34825;-88
2023/09/09 00:24:29;;;;;;;10.18;5.65;;;;;;;20.50;51.79;99554.28;4375172;32;34089;-89
2023/09/09 00:26:59;;;;;;;7.65;4.85;;;;;;;20.56;51.76;99554.13;4375358;32;34625;-88
2023/09/09 00:29:27;;;;;;;9.05;4.87;;;;;;;20.52;51.54;99555.97;4375058;32;33981;-88
2023/09/09 00:31:55;;;;;;;8.68;4.90;;;;;;;20.56;51.68;99551.50;4375145;32;34156;-88
2023/09/09 00:34:22;;;;;;;7.03;4.90;;;;;;;20.60;51.69;99554.03;4375209;32;34701;-88
2023/09/09 00:36:50;;;;;;;9.40;5.40;;;;;;;20.51;51.96;99548.09;4375337;32;33551;-88
2023/09/09 00:39:17;;;;;;;11.98;5.53;;;;;;;20.47;52.18;99546.41;4374972;32;33047;-88
2023/09/09 00:41:45;;;;;;;9.23;5.30;;;;;;;20.54;51.81;99554.19;4375186;32;34302;-88
2023/09/09 00:44:13;;;;;;;8.85;5.15;;;;;;;20.53;51.99;99548.94;4374824;32;34321;-88
2023/09/09 00:46:42;;;;;;;8.27;5.10;;;;;;;20.57;52.07;99553.22;4375056;32;33099;-89
2023/09/09 00:49:10;;;;;;;9.80;5.10;;;;;;;20.46;52.16;99549.94;4374894;32;34063;-88
2023/09/09 00:51:38;;;;;;;7.97;5.10;;;;;;;20.48;52.51;99550.75;4374558;32;33945;-88
2023/09/09 00:54:06;;;;;;;9.38;5.50;;;;;;;20.49;52.06;99549.84;4361523;32;33585;-88
2023/09/09 00:56:34;;;;;;;7.68;4.62;;;;;;;20.46;52.01;99545.53;4374862;32;33678;-89
2023/09/09 00:59:01;;;;;;;9.32;5.22;;;;;;;20.49;52.04;99548.12;4375016;32;33790;-88
2023/09/09 01:01:31;;;;;;;8.60;4.97;;;;;;;20.45;52.34;99548.19;4374842;32;34128;-88
2023/09/09 01:04:00;;;;;;;9.38;5.40;;;;;;;20.48;52.16;99551.63;4374744;32;34166;-88
2023/09/09 01:06:28;;;;;;;8.82;5.80;;;;;;;20.45;52.42;99549.06;4361096;32;33389;-88
2023/09/09 01:08:55;;;;;;;8.68;4.87;;;;;;;20.38;52.62;99550.97;4361195;32;33141;-88
2023/09/09 01:11:23;;;;;;;7.18;5.22;;;;;;;20.31;53.19;99548.50;4374677;32;34035;-88
2023/09/09 01:13:51;;;;;;;8.13;5.50;;;;;;;20.51;52.54;99546.34;4376204;32;34667;-88
2023/09/09 01:16:18;;;;;;;9.27;5.45;;;;;;;20.46;52.36;99545.53;4376721;32;34661;-88
2023/09/09 01:18:47;;;;;;;8.13;5.20;;;;;;;20.35;52.76;99542.28;4376861;32;34035;-89
2023/09/09 01:21:16;;;;;;;8.82;5.07;;;;;;;20.34;52.81;99544.03;4376342;32;34242;-88
2023/09/09 01:23:43;;;;;;;8.07;5.40;;;;;;;20.37;52.91;99541.31;4362970;32;33820;-89
2023/09/09 01:26:11;;;;;;;6.53;4.70;;;;;;;20.30;53.08;99544.97;4362384;32;34371;-88
2023/09/09 01:28:39;;;;;;;9.02;5.28;;;;;;;20.27;53.16;99541.56;4376435;32;33590;-88
2023/09/09 01:31:06;;;;;;;8.85;5.20;;;;;;;20.31;53.24;99541.47;4376559;32;35041;-89
2023/09/09 01:33:34;;;;;;;7.40;5.35;;;;;;;20.28;53.13;99536.25;4376634;32;34080;-89
2023/09/09 01:36:03;;;;;;;6.80;4.82;;;;;;;20.35;53.39;99542.28;4376354;32;33532;-88
2023/09/09 01:38:34;;;;;;;8.35;4.80;;;;;;;20.35;53.34;99542.28;4376431;32;33732;-88
2023/09/09 01:41:05;;;;;;;8.35;4.70;;;;;;;20.45;52.90;99543.78;4375966;32;33896;-89
2023/09/09 01:43:33;;;;;;;8.93;5.30;;;;;;;20.33;53.34;99544.91;4376554;32;33856;-88
2023/09/09 01:46:01;;;;;;;7.70;5.15;;;;;;;20.37;53.25;99541.31;4376671;32;34408;-88
2023/09/09 01:48:29;;;;;;;9.48;5.43;;;;;;;20.40;53.28;99546.53;4375782;32;35088;-88
2023/09/09 01:50:57;;;;;;;8.65;5.45;;;;;;;20.33;53.39;99541.41;4376573;32;35348;-88
2023/09/09 01:53:24;;;;;;;8.88;5.57;;;;;;;20.25;53.64;99543.34;4376667;32;34732;-89
2023/09/09 01:55:52;;;;;;;11.73;5.78;;;;;;;20.31;53.30;99538.84;4376653;32;33284;-89
2023/09/09 01:58:20;;;;;;;8.30;5.00;;;;;;;20.32;53.33;99535.28;4362997;32;34480;-88
2023/09/09 02:00:48;;;;;;;9.70;5.20;;;;;;;20.36;53.45;99531.69;4376382;32;34025;-88
2023/09/09 02:03:16;;;;;;;9.00;4.87;;;;;;;20.29;53.42;99539.75;4362358;32;34184;-88
2023/09/09 02:05:45;;;;;;;10.90;5.65;;;;;;;20.26;53.43;99537.19;4376295;32;34464;-89
2023/09/09 02:08:16;;;;;;;7.25;5.15;;;;;;;20.31;53.18;99538.84;4362529;32;34653;-87
2023/09/09 02:10:48;;;;;;;6.93;4.97;;;;;;;20.32;53.25;99542.31;4361116;32;35130;-88
2023/09/09 02:13:16;;;;;;;7.37;5.22;;;;;;;20.41;53.17;99542.13;4361240;32;33946;-89
2023/09/09 02:15:44;;;;;;;8.95;5.25;;;;;;;20.37;53.23;99538.69;4360254;32;34353;-89
2023/09/09 02:18:12;;;;;;;8.10;4.72;;;;;;;20.32;53.52;99531.78;4361246;32;34867;-88
2023/09/09 02:20:39;;;;;;;7.87;5.35;;;;;;;20.26;53.71;99530.13;4361459;32;34904;-88
2023/09/09 02:23:07;;;;;;;12.45;5.30;;;;;;;20.30;53.50;99534.44;4347720;32;34012;-88
2023/09/09 02:25:35;;;;;;;6.97;4.70;;;;;;;20.33;53.14;99534.38;4375744;32;33134;-88
2023/09/09 02:28:03;;;;;;;7.78;5.10;;;;;;;20.32;53.14;99537.94;4376149;32;34824;-88
2023/09/09 02:30:31;;;;;;;8.40;5.60;;;;;;;20.36;52.87;99534.31;4376354;32;34015;-88
2023/09/09 02:32:59;;;;;;;9.40;5.68;;;;;;;20.32;53.20;99524.75;4375940;32;34275;-87
2023/09/09 02:35:27;;;;;;;9.98;5.30;;;;;;;20.28;53.21;99536.25;4376229;32;33002;-88
2023/09/09 02:37:54;;;;;;;8.93;5.15;;;;;;;20.32;53.09;99532.66;4375725;32;34018;-88
2023/09/09 02:40:22;;;;;;;9.80;5.00;;;;;;;20.24;53.33;99536.37;4376278;32;34169;-87
2023/09/09 02:42:49;;;;;;;7.78;5.25;;;;;;;20.20;53.34;99527.66;4376208;32;33702;-88
2023/09/09 02:45:17;;;;;;;7.45;4.68;;;;;;;20.20;53.48;99527.66;4375993;32;33544;-88
2023/09/09 02:47:45;;;;;;;8.55;5.72;;;;;;;20.26;53.28;99527.50;4376186;32;33814;-89
2023/09/09 02:50:13;;;;;;;8.20;5.57;;;;;;;20.17;53.63;99528.56;4376069;32;35034;-88
2023/09/09 02:52:40;;;;;;;8.52;5.55;;;;;;;20.14;53.92;99527.78;4375842;32;33316;-88
2023/09/09 02:55:08;;;;;;;9.63;5.05;;;;;;;20.10;53.75;99520.84;4362047;32;34219;-87
2023/09/09 02:57:36;;;;;;;7.40;4.85;;;;;;;20.14;53.80;99527.78;4375917;32;34608;-88
2023/09/09 03:00:06;;;;;;;8.20;5.15;;;;;;;20.10;53.86;99526.09;4375661;32;34093;-89
2023/09/09 03:02:33;;;;;;;8.77;5.07;;;;;;;20.06;54.07;99529.69;4375840;32;33949;-88
2023/09/09 03:05:03;;;;;;;8.77;5.50;;;;;;;19.88;54.45;99528.28;4375657;32;33877;-89
2023/09/09 03:07:30;;;;;;;8.27;5.57;;;;;;;19.86;54.49;99525.69;4375368;32;35051;-88
2023/09/09 03:09:58;;;;;;;9.27;5.72;;;;;;;19.99;54.21;99517.56;4375686;32;34246;-88
2023/09/09 03:12:26;;;;;;;11.07;5.32;;;;;;;20.00;54.22;99524.53;4375775;32;33603;-88
2023/09/09 03:14:54;;;;;;;8.05;5.25;;;;;;;20.03;54.22;99524.47;4375665;32;34194;-89
2023/09/09 03:17:23;;;;;;;9.93;5.90;;;;;;;19.91;54.32;99520.34;4375660;32;33795;-88
2023/09/09 03:19:51;;;;;;;8.20;5.30;;;;;;;19.90;54.56;99511.56;4375910;32;33826;-88
2023/09/09 03:22:18;;;;;;;7.45;4.80;;;;;;;19.88;54.51;99510.72;4375638;32;34895;-88
2023/09/09 03:24:47;;;;;;;8.70;5.85;;;;;;;19.93;54.30;99503.63;4375641;32;33393;-88
2023/09/09 03:27:15;;;;;;;7.35;5.07;;;;;;;19.89;54.40;99509.84;4361864;32;34220;-88
2023/09/09 03:29:42;;;;;;;9.88;5.82;;;;;;;19.90;54.54;99514.22;4375699;32;34272;-88
2023/09/09 03:32:11;;;;;;;11.77;5.80;;;;;;;19.93;54.62;99508.91;4375356;32;33975;-88
2023/09/09 03:34:39;;;;;;;9.27;5.90;;;;;;;19.84;54.80;99509.06;4375341;32;33392;-89
2023/09/09 03:37:07;;;;;;;9.55;5.20;;;;;;;19.81;54.78;99508.25;4375628;32;34067;-88
2023/09/09 03:39:35;;;;;;;9.52;5.07;;;;;;;19.79;55.06;99512.69;4375581;32;34942;-89
2023/09/09 03:42:03;;;;;;;9.35;5.78;;;;;;;19.74;55.33;99502.25;4375797;32;34104;-88
2023/09/09 03:44:30;;;;;;;7.43;5.32;;;;;;;19.82;54.74;99508.22;4375644;32;34494;-88
2023/09/09 03:46:58;;;;;;;9.02;5.62;;;;;;;19.84;54.71;99502.94;4375379;32;33457;-88
2023/09/09 03:49:25;;;;;;;9.25;5.68;;;;;;;19.83;54.74;99509.97;4361802;32;33395;-89
2023/09/09 03:51:53;;;;;;;8.35;5.72;;;;;;;19.81;54.77;99508.25;4375343;32;33908;-88
2023/09/09 03:54:21;;;;;;;7.80;5.60;;;;;;;19.75;54.96;99514.50;4375633;32;33467;-88
2023/09/09 03:56:50;;;;;;;9.73;5.45;;;;;;;19.81;54.78;99514.41;4375803;32;33704;-88
2023/09/09 03:59:17;;;;;;;8.77;5.03;;;;;;;19.73;54.97;99511.03;4375609;32;34519;-88
2023/09/09 04:01:45;;;;;;;8.80;6.07;;;;;;;19.58;55.40;99511.28;4375266;32;33869;-88
2023/09/09 04:04:13;;;;;;;9.63;6.00;;;;;;;19.57;55.56;99514.81;4374783;32;33292;-88
2023/09/09 04:06:41;;;;;;;8.55;5.82;;;;;;;19.61;55.27;99513.84;4375171;32;34560;-88
2023/09/09 04:09:09;;;;;;;10.35;5.70;;;;;;;19.62;55.23;99515.63;4374135;32;33925;-89
2023/09/09 04:11:37;;;;;;;8.88;5.97;;;;;;;19.62;55.62;99518.25;4373497;32;34053;-89
2023/09/09 04:14:05;;;;;;;7.97;5.18;;;;;;;19.55;55.96;99525.38;4375271;32;34065;-88
2023/09/09 04:16:32;;;;;;;9.25;6.10;;;;;;;19.58;55.72;99525.28;4375816;32;33586;-88
2023/09/09 04:19:00;;;;;;;8.27;5.72;;;;;;;19.74;55.32;99520.69;4375472;32;33858;-88
2023/09/09 04:21:29;;;;;;;8.32;5.60;;;;;;;19.67;55.44;99527.81;4375738;32;33826;-88
2023/09/09 04:23:56;;;;;;;8.55;5.62;;;;;;;19.58;55.95;99520.03;4375677;32;33604;-89
2023/09/09 04:26:24;;;;;;;10.65;6.00;;;;;;;19.56;56.11;99532.34;4361464;32;32196;-88
2023/09/09 04:28:52;;;;;;;9.23;5.50;;;;;;;19.61;55.89;99529.63;4375188;32;34994;-88
2023/09/09 04:31:19;;;;;;;9.32;5.65;;;;;;;19.56;55.79;99526.22;4375486;32;33869;-88
2023/09/09 04:33:48;;;;;;;8.23;5.25;;;;;;;19.59;55.70;99521.78;4361630;32;33626;-89
2023/09/09 04:36:15;;;;;;;8.20;5.32;;;;;;;19.61;55.99;99527.87;4361690;32;34867;-89
2023/09/09 04:38:43;;;;;;;8.82;5.40;;;;;;;19.73;55.80;99526.81;4375464;32;34669;-89
2023/09/09 04:41:11;;;;;;;8.80;5.75;;;;;;;19.76;55.82;99526.75;4375212;32;34448;-89
2023/09/09 04:43:39;;;;;;;8.13;5.32;;;;;;;19.71;55.93;99528.63;4361534;32;33545;-89
2023/09/09 04:46:07;;;;;;;7.43;5.45;;;;;;;19.91;55.45;99531.72;4374776;32;34549;-88
2023/09/09 04:48:35;;;;;;;8.38;5.30;;;;;;;20.06;55.54;99533.19;4361374;32;33836;-89
2023/09/09 04:51:02;;;;;;;8.95;5.53;;;;;;;20.31;55.00;99532.72;4375089;32;35031;-88
2023/09/09 04:53:31;;;;;;;8.98;5.70;;;;;;;20.70;53.95;99528.34;4375011;32;34133;-88
2023/09/09 04:56:00;;;;;;;9.02;5.10;;;;;;;20.79;53.28;99528.13;4374972;32;34983;-89
2023/09/09 04:58:29;;;;;;;8.35;5.28;;;;;;;21.06;52.74;99531.03;4375067;32;34878;-88
2023/09/09 05:00:58;;;;;;;10.45;5.93;;;;;;;21.17;52.86;99539.53;4349607;32;33697;-89
2023/09/09 05:03:26;;;;;;;8.90;5.53;;;;;;;21.30;52.83;99532.22;4374684;32;34140;-89
2023/09/09 05:05:53;;;;;;;9.40;5.93;;;;;;;21.54;52.14;99546.56;4375046;32;33703;-89
2023/09/09 05:08:21;;;;;;;7.62;4.78;;;;;;;21.75;51.06;99537.22;4374606;32;34411;-87
2023/09/09 05:10:50;;;;;;;9.00;4.90;;;;;;;21.80;51.16;99536.19;4360418;32;33648;-88
2023/09/09 05:13:17;;;;;;;9.18;5.82;;;;;;;22.22;50.63;99530.63;4374370;32;34331;-88
2023/09/09 05:15:45;;;;;;;9.48;5.20;;;;;;;22.25;50.57;99533.19;4374806;32;33839;-88
2023/09/09 05:18:13;;;;;;;9.13;5.37;;;;;;;22.43;49.85;99541.50;4361191;32;34145;-89
2023/09/09 05:20:41;;;;;;;11.30;5.47;;;;;;;22.46;50.34;99546.69;4374264;32;34537;-89
2023/09/09 05:23:09;;;;;;;8.43;4.72;;;;;;;22.83;50.04;99547.28;4374546;32;33445;-88
2023/09/09 05:25:37;;;;;;;8.75;5.30;;;;;;;22.86;48.90;99541.06;4374142;32;33744;-87
2023/09/09 05:28:05;;;;;;;8.55;5.43;;;;;;;22.94;47.84;99541.69;4374782;32;35055;-88
2023/09/09 05:30:33;;;;;;;9.05;4.87;;;;;;;23.02;47.67;99549.38;4374630;32;33940;-88
2023/09/09 05:33:01;;;;;;;10.63;5.70;;;;;;;23.17;47.89;99550.69;4374311;32;34043;-89
2023/09/09 05:35:28;;;;;;;8.38;4.93;;;;;;;23.27;47.55;99545.03;4374807;32;34657;-87
2023/09/09 05:37:56;;;;;;;8.23;4.80;;;;;;;23.23;47.39;99551.34;4374434;32;33725;-88
2023/09/09 05:40:24;;;;;;;8.55;5.12;;;;;;;23.17;47.22;99546.25;4374139;32;34445;-88
2023/09/09 05:42:52;;;;;;;7.72;5.03;;;;;;;23.61;45.75;99551.84;4373323;32;34154;-88
2023/09/09 05:45:19;;;;;;;9.30;5.35;;;;;;;23.43;46.61;99542.75;4374207;32;34020;-89
2023/09/09 05:47:47;;;;;;;8.60;5.37;;;;;;;23.41;46.67;99543.69;4374383;32;34309;-89
2023/09/09 05:50:15;;;;;;;13.13;5.75;;;;;;;23.30;47.15;99542.31;4374505;32;33943;-89
2023/09/09 05:52:42;;;;;;;10.25;5.28;;;;;;;23.33;47.69;99545.75;4374210;32;33958;-88
2023/09/09 05:55:10;;;;;;;8.90;5.80;;;;;;;23.41;46.68;99539.31;4360747;32;33930;-89
2023/09/09 05:57:39;;;;;;;9.48;5.82;;;;;;;23.31;47.66;99548.44;4374296;32;34226;-87
2023/09/09 06:00:09;;;;;;;9.45;5.07;;;;;;;23.64;47.09;99546.44;4368734;32;33499;-88
2023/09/09 06:02:39;;;;;;;9.45;5.15;;;;;;;23.44;47.21;99543.59;4363368;32;33304;-88
2023/09/09 06:05:09;;;;;;;6.85;4.90;;;;;;;23.29;48.16;99548.47;4376461;32;34701;-89
2023/09/09 06:07:37;;;;;;;9.07;5.35;;;;;;;23.31;48.32;99551.97;4375908;32;34165;-88
2023/09/09 06:10:09;;;;;;;9.75;5.35;;;;;;;23.34;48.29;99552.78;4351667;32;34273;-89
2023/09/09 06:12:37;;;;;;;10.13;5.45;;;;;;;23.05;48.42;99551.94;4376117;32;33709;-89
2023/09/09 06:15:05;;;;;;;8.43;5.53;;;;;;;23.18;47.90;99558.56;4375610;32;34054;-88
2023/09/09 06:17:36;;;;;;;12.68;5.68;;;;;;;23.01;49.02;99555.59;4376472;32;34167;-88
2023/09/09 06:20:04;;;;;;;8.82;5.55;;;;;;;22.97;49.17;99554.84;4376217;32;33424;-88
2023/09/09 06:22:34;;;;;;;10.63;6.03;;;;;;;22.79;49.77;99561.50;4376374;32;33139;-87
2023/09/09 06:25:04;;;;;;;10.55;5.87;;;;;;;23.20;48.61;99554.09;4376191;32;34823;-87
2023/09/09 06:27:32;;;;;;;10.85;5.97;;;;;;;23.03;49.28;99559.94;4376142;32;34026;-87
2023/09/09 06:30:00;;;;;;;9.00;5.53;;;;;;;22.99;49.71;99570.62;4376155;32;33633;-88
2023/09/09 06:32:28;;;;;;;9.02;5.45;;;;;;;22.94;48.32;99562.84;4376271;32;33398;-88
2023/09/09 06:34:56;;;;;;;11.23;5.65;;;;;;;22.81;49.19;99572.94;4376040;32;33784;-88
2023/09/09 06:37:24;;;;;;;7.82;5.15;;;;;;;23.10;49.10;99557.94;4376393;32;34787;-88
2023/09/09 06:39:51;;;;;;;7.53;4.82;;;;;;;23.39;47.96;99567.56;4376256;32;33892;-88
2023/09/09 06:42:19;;;;;;;7.45;4.68;;;;;;;23.11;48.98;99566.72;4374163;32;33243;-88
2023/09/09 06:44:47;;;;;;;8.15;4.93;;;;;;;23.18;48.88;99565.63;4361932;32;34751;-89
2023/09/09 06:47:14;;;;;;;9.63;5.20;;;;;;;23.41;47.86;99567.50;4376037;32;35158;-93
2023/09/09 06:49:42;;;;;;;8.38;4.65;;;;;;;23.64;47.46;99569.38;4376040;32;33989;-92
2023/09/09 06:52:09;;;;;;;10.13;5.00;;;;;;;23.60;47.08;99570.41;4376094;32;33444;-88
2023/09/09 06:54:37;;;;;;;7.90;4.80;;;;;;;23.52;47.25;99584.78;4378381;32;34811;-90
2023/09/09 06:57:05;;;;;;;7.72;4.80;;;;;;;23.66;47.04;99578.16;4391009;32;34519;-89
2023/09/09 06:59:32;;;;;;;8.95;5.12;;;;;;;23.64;46.52;99590.56;4378685;32;33821;-89
2023/09/09 07:02:02;;;;;;;9.65;5.00;;;;;;;23.46;47.34;99590.28;4350225;32;33922;-90
2023/09/09 07:04:29;;;;;;;7.20;4.70;;;;;;;23.46;45.91;99589.41;4375815;32;33751;-88
2023/09/09 07:06:57;;;;;;;7.75;4.40;;;;;;;23.53;46.56;99586.50;4362248;32;33745;-86
2023/09/09 07:09:40;;;;;;;8.25;5.25;;;;;;;23.72;45.80;99586.78;4375449;32;33951;-90
2023/09/09 07:12:09;;;;;;;8.98;5.00;;;;;;;23.61;46.29;99588.91;4375483;32;33601;-88
2023/09/09 07:14:36;;;;;;;8.43;5.10;;;;;;;23.26;46.36;99590.94;4375902;32;34814;-89
2023/09/09 07:17:08;;;;;;;7.15;4.43;;;;;;;23.55;46.23;99589.09;4375645;32;34224;-91
2023/09/09 07:19:36;;;;;;;9.45;5.12;;;;;;;23.88;46.48;99597.72;4375949;32;34871;-90
2023/09/09 07:22:05;;;;;;;7.25;4.68;;;;;;;24.14;45.03;99594.12;4376233;32;33292;-86
2023/09/09 07:24:33;;;;;;;7.72;4.80;;;;;;;23.88;45.53;99592.41;4361745;32;34966;-86
2023/09/09 07:27:04;;;;;;;8.23;5.37;;;;;;;24.44;44.41;99593.97;4375102;32;34244;-85
2023/09/09 07:29:31;;;;;;;8.18;4.95;;;;;;;24.37;44.73;99595.09;4375433;32;34274;-88
2023/09/09 07:31:59;;;;;;;8.98;4.75;;;;;;;24.51;45.10;99598.13;4375703;32;34686;-86
2023/09/09 07:34:27;;;;;;;9.35;4.97;;;;;;;24.73;44.10;99596.37;4375931;32;33944;-87
2023/09/09 07:36:54;;;;;;;11.10;5.30;;;;;;;24.99;43.43;99602.47;4369566;32;34990;-89
2023/09/09 07:39:22;;;;;;;8.95;5.37;;;;;;;24.34;44.12;99600.50;4373446;32;33810;-88
2023/09/09 07:41:49;;;;;;;9.75;5.15;;;;;;;24.97;43.95;99596.37;4375570;32;33580;-89
2023/09/09 07:44:17;;;;;;;10.25;5.47;;;;;;;25.07;43.45;99600.38;4374246;32;34785;-85
2023/09/09 07:46:45;;;;;;;8.23;4.85;;;;;;;25.28;43.31;99596.03;4375820;32;33829;-88
2023/09/09 07:49:13;;;;;;;9.07;5.15;;;;;;;25.26;43.11;99597.00;4361519;32;33179;-87
2023/09/09 07:51:41;;;;;;;10.68;5.03;;;;;;;25.41;43.31;99599.03;4375347;32;33628;-88
2023/09/09 07:54:08;;;;;;;9.82;5.20;;;;;;;25.75;41.66;99598.50;4375740;32;34076;-87
2023/09/09 07:56:36;;;;;;;11.57;5.45;;;;;;;25.75;42.28;99595.84;4375367;32;34964;-87
2023/09/09 07:59:03;;;;;;;10.00;5.62;;;;;;;25.94;41.55;99593.28;4375364;32;34041;-88
2023/09/09 08:01:31;;;;;;;9.32;5.15;;;;;;;25.87;42.02;99595.34;4375615;32;33291;-87
2023/09/09 08:03:59;;;;;;;9.45;4.80;;;;;;;25.89;42.70;99605.91;4375119;32;34913;-85
2023/09/09 08:06:27;;;;;;;11.40;6.18;;;;;;;25.86;41.96;99592.75;4375228;32;34198;-85
2023/09/09 08:08:54;;;;;;;9.55;5.43;;;;;;;26.01;41.31;99588.56;4375498;32;33914;-93
2023/09/09 08:11:22;;;;;;;10.27;5.55;;;;;;;26.19;41.08;99593.94;4375358;32;33506;-87
2023/09/09 08:13:49;;;;;;;8.27;4.95;;;;;;;26.20;40.73;99595.66;4361327;32;32870;-87
2023/09/09 08:16:17;;;;;;;8.55;5.10;;;;;;;26.35;42.15;99595.91;4375465;32;34137;-88
2023/09/09 08:18:45;;;;;;;7.90;5.45;;;;;;;26.36;40.99;99587.84;4375272;32;33666;-89
2023/09/09 08:21:14;;;;;;;7.07;4.65;;;;;;;26.53;40.90;99589.78;4374472;32;33239;-86
2023/09/09 08:23:42;;;;;;;8.35;5.40;;;;;;;26.50;41.08;99589.91;4375488;32;33606;-87
2023/09/09 08:26:11;;;;;;;9.88;5.37;;;;;;;26.56;39.79;99589.66;4361610;32;34142;-84
2023/09/09 08:28:40;;;;;;;9.52;5.45;;;;;;;26.58;39.31;99589.56;4375483;32;33983;-86
2023/09/09 08:31:07;;;;;;;7.12;4.55;;;;;;;26.50;40.81;99586.41;4375436;32;34208;-83
2023/09/09 08:33:35;;;;;;;12.70;4.90;;;;;;;26.23;40.42;99586.69;4361822;32;33406;-84
2023/09/09 08:36:04;;;;;;;12.30;5.28;;;;;;;26.41;42.12;99590.31;4375117;32;34129;-85
2023/09/09 08:38:32;;;;;;;8.23;5.00;;;;;;;26.72;40.58;99592.47;4374557;32;34216;-87
2023/09/09 08:41:21;;;;;;;9.55;5.62;;;;;;;26.28;41.44;99594.44;4375111;32;33975;-95
2023/09/09 08:44:07;;;;;;;8.48;4.97;;;;;;;26.61;40.49;99587.63;4361404;32;34687;-85
2023/09/09 08:46:35;;;;;;;9.02;4.95;;;;;;;26.76;39.92;99587.84;4374912;32;35064;-85
2023/09/09 08:49:04;;;;;;;15.15;6.57;;;;;;;26.57;40.69;99586.06;4361637;32;34777;-85
2023/09/09 08:51:40;;;;;;;10.70;4.65;;;;;;;26.84;40.00;99585.69;4375327;32;33849;-86
2023/09/09 08:54:09;;;;;;;8.70;5.07;;;;;;;27.03;39.62;99585.69;4360807;32;34043;-84
2023/09/09 08:56:36;;;;;;;11.23;5.03;;;;;;;26.91;39.17;99584.47;4361154;32;34491;-84
2023/09/09 08:59:05;;;;;;;12.37;4.87;;;;;;;27.02;39.69;99582.16;4374567;32;33780;-84
2023/09/09 09:01:33;;;;;;;8.77;5.07;;;;;;;27.06;40.14;99591.72;4361587;32;34528;-85
2023/09/09 09:04:00;;;;;;;8.88;4.95;;;;;;;27.11;39.12;99581.72;4375020;32;34682;-86
2023/09/09 09:06:29;;;;;;;7.18;4.62;;;;;;;27.23;39.80;99590.06;4374176;32;34292;-84
2023/09/09 09:08:57;;;;;;;7.03;4.87;;;;;;;27.23;39.94;99579.41;4359922;32;33670;-86
2023/09/09 09:11:25;;;;;;;9.13;4.82;;;;;;;27.37;38.40;99584.94;4346513;32;33567;-85
2023/09/09 09:13:54;;;;;;;8.95;5.00;;;;;;;27.25;39.16;99582.87;4359720;32;34771;-85
2023/09/09 09:16:22;;;;;;;12.80;5.40;;;;;;;27.02;40.51;99595.47;4346299;32;34066;-84
2023/09/09 09:18:49;;;;;;;9.02;4.80;;;;;;;27.35;39.50;99587.69;4358325;32;34776;-85
2023/09/09 09:21:18;;;;;;;6.97;4.18;;;;;;;27.60;39.46;99589.09;4359341;32;33531;-87
2023/09/09 09:23:46;;;;;;;7.78;5.03;;;;;;;27.44;38.37;99578.34;4359493;32;34773;-85
2023/09/09 09:26:27;;;;;;;9.02;4.30;;;;;;;27.74;38.95;99583.09;4359251;32;33892;-84
2023/09/09 09:28:55;;;;;;;11.02;5.20;;;;;;;27.76;37.83;99575.88;4362429;32;34213;-87
2023/09/09 09:31:24;;;;;;;8.48;5.15;;;;;;;27.98;37.58;99571.16;4374880;32;33299;-84
2023/09/09 09:33:52;;;;;;;9.80;4.32;;;;;;;28.00;36.51;99573.78;4375640;32;33948;-85
2023/09/09 09:36:21;;;;;;;8.68;4.82;;;;;;;28.03;37.24;99577.09;4376611;32;34409;-84
2023/09/09 09:38:49;;;;;;;6.87;4.57;;;;;;;28.10;36.49;99570.50;4358532;32;34648;-86
2023/09/09 09:41:17;;;;;;;12.15;4.47;;;;;;;28.11;37.71;99572.25;4361404;32;33694;-87
2023/09/09 09:43:49;;;;;;;7.50;4.28;;;;;;;28.20;35.61;99575.38;4375651;32;33581;-85
2023/09/09 09:46:20;;;;;;;8.15;4.05;;;;;;;28.12;36.13;99570.47;4374761;32;34101;-86
2023/09/09 09:48:49;;;;;;;6.57;4.00;;;;;;;28.06;34.43;99565.44;4350060;32;32604;-87
2023/09/09 09:51:16;;;;;;;6.75;4.18;;;;;;;27.92;36.22;99568.84;4375790;32;34397;-85
2023/09/09 09:53:53;;;;;;;7.18;3.97;;;;;;;27.91;34.99;99569.75;4373425;32;33896;-86
2023/09/09 09:56:21;;;;;;;8.68;4.72;;;;;;;28.37;34.15;99570.00;4374154;32;34311;-85
2023/09/09 09:58:50;;;;;;;8.68;3.87;;;;;;;28.33;34.45;99571.09;4376036;32;32769;-86
2023/09/09 10:01:18;;;;;;;7.68;4.12;;;;;;;28.31;33.38;99565.00;4375682;32;33175;-87
2023/09/09 10:03:57;;;;;;;7.32;4.30;;;;;;;28.25;33.79;99571.50;4375277;32;33732;-86
2023/09/09 10:06:27;;;;;;;8.60;4.37;;;;;;;28.51;33.96;99561.28;4362719;32;34534;-89
2023/09/09 10:09:10;;;;;;;8.73;4.37;;;;;;;28.28;35.36;99566.03;4374192;32;34784;-94
2023/09/09 10:11:45;;;;;;;9.65;4.05;;;;;;;28.81;32.15;99559.56;4372191;32;33444;-86
2023/09/09 10:14:14;;;;;;;;;;;;;;;28.87;34.10;99569.06;4358457;32;34900;-86
2023/09/09 10:16:42;;;;;;;9.20;3.92;;;;;;;28.94;33.62;99556.22;4375680;32;34147;-90
2023/09/09 10:19:11;;;;;;;8.48;4.22;;;;;;;28.81;33.46;99567.56;4360682;32;34223;-83
2023/09/09 10:21:41;;;;;;;6.50;3.83;;;;;;;29.20;31.63;99571.63;4362342;32;34599;-83
2023/09/09 10:24:10;;;;;;;6.45;4.25;;;;;;;29.19;31.97;99572.59;4376322;32;34023;-90
2023/09/09 10:26:38;;;;;;;7.25;4.60;;;;;;;29.17;32.46;99566.50;4362379;32;34088;-86
2023/09/09 10:29:06;;;;;;;7.12;4.40;;;;;;;29.28;34.23;99568.50;4376269;32;34663;-84
2023/09/09 10:31:35;;;;;;;7.87;3.40;;;;;;;29.13;31.91;99559.56;4362238;32;33500;-86
2023/09/09 10:34:03;;;;;;;8.20;4.20;;;;;;;29.36;32.04;99560.94;4376033;32;33766;-85
2023/09/09 10:36:37;;;;;;;6.00;4.00;;;;;;;29.09;32.59;99556.25;4375894;32;34088;-89
2023/09/09 10:39:25;;;;;;;8.82;4.50;;;;;;;28.95;31.70;99553.47;4376167;32;33676;-89
2023/09/09 10:41:55;;;;;;;9.57;4.22;;;;;;;29.31;33.26;99553.19;4376360;32;33311;-86
2023/09/09 10:44:23;;;;;;;11.63;4.37;;;;;;;29.29;33.67;99559.56;4361423;32;33867;-88
2023/09/09 10:46:55;;;;;;;8.93;4.22;;;;;;;29.74;29.85;99539.16;4370304;32;33713;-85
2023/09/09 10:49:29;;;;;;;9.70;4.10;;;;;;;29.77;29.67;99546.94;4376134;32;33901;-84
2023/09/09 10:51:57;;;;;;;7.12;4.15;;;;;;;29.73;30.56;99542.75;4362336;32;33232;-93
2023/09/09 10:54:26;;;;;;;12.48;4.10;;;;;;;29.75;29.73;99541.72;4376245;32;34914;-86
2023/09/09 10:56:57;;;;;;;6.72;3.72;;;;;;;29.64;30.33;99529.94;4362277;32;34040;-86
2023/09/09 10:59:31;;;;;;;7.50;4.45;;;;;;;29.58;30.95;99542.69;4376096;32;33997;-84
2023/09/09 11:02:18;;;;;;;8.18;4.20;;;;;;;29.39;30.65;99534.03;4362546;32;33544;-86
2023/09/09 11:04:57;;;;;;;11.48;3.90;;;;;;;29.47;30.71;99537.13;4347726;32;33850;-86
2023/09/09 11:07:40;;;;;;;7.82;4.05;;;;;;;29.81;29.52;99525.31;4360676;32;34972;-88
2023/09/09 11:10:08;;;;;;;7.87;4.20;;;;;;;29.70;33.89;99532.22;4361014;32;34046;-85
2023/09/09 11:12:37;;;;;;;7.40;4.55;;;;;;;29.56;29.20;99520.53;4360941;32;33416;-84
2023/09/09 11:15:09;;;;;;;8.05;4.82;;;;;;;29.72;28.49;99525.00;4361043;32;34119;-84
2023/09/09 11:17:40;;;;;;;9.68;4.70;;;;;;;30.07;29.25;99530.84;4364916;32;33920;-85
2023/09/09 11:20:11;;;;;;;8.63;4.30;;;;;;;30.05;30.45;99527.44;4375660;32;33917;-85
2023/09/09 11:22:40;;;;;;;8.90;4.40;;;;;;;29.84;29.56;99521.56;4362511;32;33531;-85
2023/09/09 11:25:08;;;;;;;7.87;3.80;;;;;;;30.13;28.49;99511.75;4375827;32;34127;-84
2023/09/09 11:27:36;;;;;;;9.88;3.85;;;;;;;29.89;27.42;99515.94;4361955;32;34236;-86
2023/09/09 11:30:04;;;;;;;8.20;4.15;;;;;;;29.91;27.17;99514.91;4362264;32;33940;-85
2023/09/09 11:32:32;;;;;;;6.22;3.95;;;;;;;29.58;29.78;99510.66;4375983;32;33338;-86
2023/09/09 11:35:00;;;;;;;8.88;4.53;;;;;;;29.67;29.80;99513.75;4375454;32;34848;-86
2023/09/09 11:37:28;;;;;;;9.43;4.05;;;;;;;29.39;28.26;99520.69;4376231;32;34232;-85
2023/09/09 11:39:57;;;;;;;9.18;4.10;;;;;;;29.45;28.73;99512.31;4375547;32;34066;-84